createdAt,value
2017-07-14T00:01:22.313Z,1004.65
2017-07-14T00:03:37.994Z,1004.55
2017-07-14T00:05:39.364Z,1004.53
2017-07-14T00:08:03.422Z,1004.52
2017-07-14T00:10:27.444Z,1004.47
2017-07-14T00:12:51.377Z,1004.55
2017-07-14T00:15:15.511Z,1004.5
2017-07-14T00:17:39.590Z,1004.53
2017-07-14T00:19:55.269Z,1004.56
2017-07-14T00:22:19.354Z,1004.56
2017-07-14T00:24:36.058Z,1004.53
2017-07-14T00:27:01.173Z,1004.43
2017-07-14T00:29:25.263Z,1004.42
2017-07-14T00:31:49.327Z,1004.37
2017-07-14T00:34:05.013Z,1004.43
2017-07-14T00:36:29.098Z,1004.49
2017-07-14T00:38:53.182Z,1004.5
2017-07-14T00:41:08.820Z,1004.47
2017-07-14T00:43:24.445Z,1004.46
2017-07-14T00:45:40.030Z,1004.45
2017-07-14T00:47:55.615Z,1004.45
2017-07-14T00:50:19.692Z,1004.42
2017-07-14T00:52:36.302Z,1004.45
2017-07-14T00:55:00.388Z,1004.46
2017-07-14T00:57:24.467Z,1004.44
2017-07-14T00:59:49.575Z,1004.43
2017-07-14T01:02:13.656Z,1004.39
2017-07-14T01:04:37.736Z,1004.33
2017-07-14T01:07:01.819Z,1004.32
2017-07-14T01:09:17.468Z,1004.29
2017-07-14T01:11:27.388Z,1004.31
2017-07-14T01:13:51.459Z,1004.29
2017-07-14T01:15:53.307Z,1004.28
2017-07-14T01:18:17.395Z,1004.26
2017-07-14T01:20:33.013Z,1004.29
2017-07-14T01:22:57.066Z,1004.25
2017-07-14T01:25:21.102Z,1004.24
2017-07-14T01:27:45.156Z,1004.21
2017-07-14T01:30:00.726Z,1004.24
2017-07-14T01:32:16.289Z,1004.24
2017-07-14T01:34:40.328Z,1004.25
2017-07-14T01:37:04.422Z,1004.24
2017-07-14T01:39:28.509Z,1004.25
2017-07-14T01:41:52.483Z,1004.28
2017-07-14T01:44:18.539Z,1004.25
2017-07-14T01:46:42.599Z,1004.25
2017-07-14T01:49:07.701Z,1004.22
2017-07-14T01:51:31.659Z,1004.19
2017-07-14T01:53:47.274Z,1004.18
2017-07-14T01:56:11.250Z,1004.11
2017-07-14T01:58:35.326Z,1004.07
2017-07-14T02:00:52.919Z,1003.99
2017-07-14T02:03:09.529Z,1004.05
2017-07-14T02:05:33.640Z,1004.05
2017-07-14T02:07:50.246Z,1004.04
2017-07-14T02:09:51.603Z,1004.06
2017-07-14T02:12:15.580Z,1004.1
2017-07-14T02:14:39.516Z,1004.11
2017-07-14T02:16:55.034Z,1004.11
2017-07-14T02:19:18.994Z,1004.04
2017-07-14T02:21:34.617Z,1004.02
2017-07-14T02:23:58.598Z,1004.03
2017-07-14T02:26:15.146Z,1004.08
2017-07-14T02:28:31.789Z,1004.08
2017-07-14T02:30:33.153Z,1004.1
2017-07-14T02:32:57.136Z,1004.07
2017-07-14T02:35:21.109Z,1004.04
2017-07-14T02:37:36.675Z,1004.07
2017-07-14T02:40:00.769Z,1004.02
2017-07-14T02:42:16.290Z,1004.02
2017-07-14T02:44:18.159Z,1004.02
2017-07-14T02:46:33.735Z,1004.04
2017-07-14T02:48:57.734Z,1004.03
2017-07-14T02:51:21.736Z,1003.99
2017-07-14T02:53:38.321Z,1003.93
2017-07-14T02:55:31.242Z,1003.98
2017-07-14T02:57:55.237Z,1004
2017-07-14T03:00:05.093Z,1004.01
2017-07-14T03:02:29.086Z,1004.01
2017-07-14T03:04:53.077Z,1003.98
2017-07-14T03:07:02.979Z,1004.01
2017-07-14T03:09:26.946Z,1003.99
2017-07-14T03:11:42.479Z,1004.02
2017-07-14T03:14:06.482Z,1004.04
2017-07-14T03:16:30.564Z,1004.06
2017-07-14T03:18:54.654Z,1004.12
2017-07-14T03:21:18.727Z,1004.17
2017-07-14T03:23:34.272Z,1004.17
2017-07-14T03:25:58.284Z,1004.16
2017-07-14T03:28:22.375Z,1004.13
2017-07-14T03:30:46.449Z,1004.07
2017-07-14T03:33:02.001Z,1003.97
2017-07-14T03:35:26.031Z,1004
2017-07-14T03:37:50.098Z,1003.96
2017-07-14T03:40:15.211Z,1003.94
2017-07-14T03:42:39.281Z,1003.93
2017-07-14T03:44:38.001Z,1003.91
2017-07-14T03:47:02.052Z,1003.96
2017-07-14T03:49:26.139Z,1004
2017-07-14T03:51:50.208Z,1004.03
2017-07-14T03:54:05.804Z,1004.05
2017-07-14T03:56:21.491Z,1004.08
2017-07-14T03:58:46.497Z,1004.1
2017-07-14T04:01:02.137Z,1004.08
2017-07-14T04:03:26.117Z,1004.12
2017-07-14T04:05:50.133Z,1004.21
2017-07-14T04:08:15.147Z,1004.24
2017-07-14T04:10:39.224Z,1004.25
2017-07-14T04:13:03.304Z,1004.33
2017-07-14T04:15:27.318Z,1004.39
2017-07-14T04:17:51.362Z,1004.43
2017-07-14T04:20:15.446Z,1004.45
2017-07-14T04:22:39.433Z,1004.48
2017-07-14T04:25:03.516Z,1004.53
2017-07-14T04:27:28.616Z,1004.54
2017-07-14T04:29:52.698Z,1004.52
2017-07-14T04:32:08.272Z,1004.54
2017-07-14T04:34:32.365Z,1004.53
2017-07-14T04:36:56.442Z,1004.46
2017-07-14T04:39:20.520Z,1004.4
2017-07-14T04:41:44.516Z,1004.41
2017-07-14T04:44:08.584Z,1004.41
2017-07-14T04:46:32.654Z,1004.41
2017-07-14T04:48:56.664Z,1004.26
2017-07-14T04:51:21.747Z,1004.06
2017-07-14T04:53:45.831Z,1004.01
2017-07-14T04:56:09.914Z,1004.1
2017-07-14T04:58:33.996Z,1004.17
2017-07-14T05:00:49.647Z,1004.2
2017-07-14T05:03:05.226Z,1004.19
2017-07-14T05:05:20.742Z,1004.22
2017-07-14T05:07:36.324Z,1004.14
2017-07-14T05:10:00.288Z,1004.11
2017-07-14T05:12:15.955Z,1004.08
2017-07-14T05:14:40.998Z,1004.13
2017-07-14T05:17:11.955Z,1004.07
2017-07-14T05:19:36.028Z,1004.04
2017-07-14T05:22:02.177Z,1003.96
2017-07-14T05:24:27.259Z,1004
2017-07-14T05:26:51.364Z,1004.05
2017-07-14T05:29:15.534Z,1004.06
2017-07-14T05:31:31.351Z,1004.11
2017-07-14T05:33:55.647Z,1004.19
2017-07-14T05:36:20.060Z,1004.17
2017-07-14T05:38:44.493Z,1004.2
2017-07-14T05:41:09.069Z,1004.22
2017-07-14T05:43:33.790Z,1004.22
2017-07-14T05:45:58.651Z,1004.24
2017-07-14T05:48:23.648Z,1004.14
2017-07-14T05:50:41.304Z,1004.04
2017-07-14T05:53:06.506Z,1004.01
2017-07-14T05:55:23.150Z,1004.15
2017-07-14T05:57:39.815Z,1004.55
2017-07-14T06:00:05.183Z,1004.6
2017-07-14T06:02:30.752Z,1004.49
2017-07-14T06:04:56.463Z,1004.6
2017-07-14T06:06:58.799Z,1004.56
2017-07-14T06:09:24.774Z,1004.28
2017-07-14T06:11:50.856Z,1004.63
2017-07-14T06:14:17.028Z,1004.65
2017-07-14T06:16:59.155Z,1004.5
2017-07-14T06:21:01.744Z,1004.3
2017-07-14T06:23:27.864Z,1004.32
2017-07-14T06:25:38.314Z,1004.28
2017-07-14T06:27:55.582Z,1004.24
2017-07-14T06:30:21.166Z,1004.27
2017-07-14T06:32:46.612Z,1004.23
2017-07-14T06:35:11.939Z,1004.31
2017-07-14T06:37:37.119Z,1004.26
2017-07-14T06:40:02.195Z,1004.21
2017-07-14T06:42:18.670Z,1004.24
2017-07-14T06:44:43.653Z,1004.28
2017-07-14T06:47:02.100Z,1004.33
2017-07-14T06:49:18.409Z,1004.3
2017-07-14T06:51:43.060Z,1004.35
2017-07-14T06:54:07.756Z,1004.36
2017-07-14T06:56:32.332Z,1004.39
2017-07-14T06:58:56.821Z,1004.41
2017-07-14T07:01:14.873Z,1004.34
2017-07-14T07:03:30.907Z,1004.43
2017-07-14T07:05:55.326Z,1004.5
2017-07-14T07:08:19.814Z,1004.47
2017-07-14T07:10:45.226Z,1004.47
2017-07-14T07:13:09.592Z,1004.47
2017-07-14T07:15:34.006Z,1004.42
2017-07-14T07:17:49.887Z,1004.43
2017-07-14T07:20:14.267Z,1004.5
2017-07-14T07:22:38.508Z,1004.46
2017-07-14T07:25:02.764Z,1004.43
2017-07-14T07:27:27.021Z,1004.35
2017-07-14T07:29:42.914Z,1004.38
2017-07-14T07:32:07.208Z,1004.41
2017-07-14T07:34:31.478Z,1004.4
2017-07-14T07:36:55.768Z,1004.36
2017-07-14T07:39:20.053Z,1004.39
2017-07-14T07:41:30.052Z,1004.48
2017-07-14T07:43:54.351Z,1004.45
2017-07-14T07:46:18.622Z,1004.48
2017-07-14T07:48:42.929Z,1004.43
2017-07-14T07:51:07.375Z,1004.46
2017-07-14T07:53:31.767Z,1004.41
2017-07-14T07:55:56.164Z,1004.42
2017-07-14T07:58:12.096Z,1004.37
2017-07-14T08:00:36.560Z,1004.46
2017-07-14T08:03:01.059Z,1004.64
2017-07-14T08:05:12.637Z,1004.47
2017-07-14T08:07:37.134Z,1004.44
2017-07-14T08:10:01.695Z,1004.43
2017-07-14T08:12:26.399Z,1004.47
2017-07-14T08:14:51.025Z,1004.44
2017-07-14T08:17:15.732Z,1004.46
2017-07-14T08:19:41.480Z,1004.54
2017-07-14T08:22:13.086Z,1004.51
2017-07-14T08:24:39.011Z,1004.52
2017-07-14T08:26:41.085Z,1004.49
2017-07-14T08:29:06.114Z,1004.38
2017-07-14T08:31:22.627Z,1004.47
2017-07-14T08:33:47.586Z,1004.35
2017-07-14T08:36:12.571Z,1004.36
2017-07-14T08:38:37.571Z,1004.41
2017-07-14T08:41:02.586Z,1004.39
2017-07-14T08:43:27.582Z,1004.52
2017-07-14T08:45:52.640Z,1004.67
2017-07-14T08:48:09.228Z,1004.57
2017-07-14T08:50:25.891Z,1004.52
2017-07-14T08:52:51.194Z,1004.67
2017-07-14T08:56:37.939Z,1004.69
2017-07-14T08:58:54.846Z,1004.59
2017-07-14T09:01:20.227Z,1004.66
2017-07-14T09:03:37.104Z,1004.68
2017-07-14T09:05:53.932Z,1004.7
2017-07-14T09:08:19.367Z,1004.75
2017-07-14T09:10:45.835Z,1004.54
2017-07-14T09:13:11.344Z,1004.46
2017-07-14T09:15:36.838Z,1004.45
2017-07-14T09:18:02.252Z,1004.47
2017-07-14T09:20:27.537Z,1004.48
2017-07-14T09:22:52.785Z,1004.44
2017-07-14T09:25:09.597Z,1004.36
2017-07-14T09:27:34.995Z,1004.43
2017-07-14T09:29:51.650Z,1004.57
2017-07-14T09:32:16.795Z,1004.67
2017-07-14T09:34:41.990Z,1004.47
2017-07-14T09:37:07.329Z,1004.45
2017-07-14T09:39:32.533Z,1004.41
2017-07-14T09:43:35.060Z,1004.53
2017-07-14T09:46:00.225Z,1004.56
2017-07-14T09:48:25.376Z,1004.57
2017-07-14T09:50:50.622Z,1004.54
2017-07-14T09:53:24.883Z,1004.5
2017-07-14T09:55:41.797Z,1004.56
2017-07-14T09:58:07.123Z,1004.37
2017-07-14T10:00:32.464Z,1004.34
2017-07-14T10:02:49.327Z,1004.36
2017-07-14T10:05:14.752Z,1004.41
2017-07-14T10:07:16.439Z,1004.41
2017-07-14T10:09:41.753Z,1004.49
2017-07-14T10:12:07.061Z,1004.34
2017-07-14T10:14:15.981Z,1004.48
2017-07-14T10:16:42.272Z,1004.4
2017-07-14T10:19:07.570Z,1004.29
2017-07-14T10:21:24.322Z,1004.2
2017-07-14T10:23:49.579Z,1004.27
2017-07-14T10:26:06.269Z,1004.21
2017-07-14T10:28:31.506Z,1004.16
2017-07-14T10:30:41.803Z,1004.02
2017-07-14T10:33:06.973Z,1004.15
2017-07-14T10:35:32.107Z,1004.1
2017-07-14T10:37:57.222Z,1004.09
2017-07-14T10:40:22.339Z,1004.2
2017-07-14T10:42:47.419Z,1004.11
2017-07-14T10:45:04.033Z,1004.16
2017-07-14T10:47:29.189Z,1004.15
2017-07-14T10:49:54.288Z,1004.07
2017-07-14T10:52:19.378Z,1003.95
2017-07-14T10:54:44.458Z,1003.85
2017-07-14T10:57:26.622Z,1003.91
2017-07-14T10:59:51.719Z,1003.81
2017-07-14T11:02:16.705Z,1003.74
2017-07-14T11:04:41.712Z,1003.88
2017-07-14T11:07:08.812Z,1003.75
2017-07-14T11:09:25.291Z,1003.8
2017-07-14T11:11:50.266Z,1003.78
2017-07-14T11:14:17.216Z,1003.79
2017-07-14T11:16:35.780Z,1003.65
2017-07-14T11:19:00.769Z,1003.51
2017-07-14T11:21:25.762Z,1003.51
2017-07-14T11:23:50.729Z,1003.5
2017-07-14T11:26:15.710Z,1003.42
2017-07-14T11:28:32.176Z,1003.4
2017-07-14T11:30:57.100Z,1003.51
2017-07-14T11:33:29.794Z,1003.48
2017-07-14T11:35:54.680Z,1003.43
2017-07-14T11:38:04.873Z,1003.52
2017-07-14T11:40:29.754Z,1003.56
2017-07-14T11:42:54.549Z,1003.48
2017-07-14T11:45:19.354Z,1003.36
2017-07-14T11:47:44.117Z,1003.44
2017-07-14T11:50:08.839Z,1003.4
2017-07-14T11:52:16.592Z,1003.46
2017-07-14T11:54:26.742Z,1003.45
2017-07-14T11:56:51.534Z,1003.34
2017-07-14T11:59:16.275Z,1003.32
2017-07-14T12:01:41.058Z,1003.28
2017-07-14T12:04:05.827Z,1003.28
2017-07-14T12:06:30.584Z,1003.33
2017-07-14T12:08:55.364Z,1003.25
2017-07-14T12:11:20.069Z,1003.21
2017-07-14T12:13:44.783Z,1003.26
2017-07-14T12:16:09.498Z,1003.33
2017-07-14T12:18:35.226Z,1003.27
2017-07-14T12:20:59.858Z,1003.34
2017-07-14T12:23:24.454Z,1003.42
2017-07-14T12:26:06.159Z,1003.41
2017-07-14T12:28:30.844Z,1003.31
2017-07-14T12:30:55.614Z,1003.31
2017-07-14T12:34:58.589Z,1003.21
2017-07-14T12:37:23.399Z,1003.2
2017-07-14T12:39:48.100Z,1003.17
2017-07-14T12:42:13.636Z,1003.22
2017-07-14T12:44:38.304Z,1003.17
2017-07-14T12:47:02.899Z,1003.12
2017-07-14T12:49:27.500Z,1003.13
2017-07-14T12:51:52.156Z,1003.15
2017-07-14T12:54:16.780Z,1003.15
2017-07-14T12:56:41.437Z,1003.13
2017-07-14T13:00:33.439Z,1003.06
2017-07-14T13:02:58.220Z,1002.95
2017-07-14T13:05:22.983Z,1002.9
2017-07-14T13:07:47.770Z,1002.89
2017-07-14T13:10:12.516Z,1002.95
2017-07-14T13:12:22.659Z,1002.86
2017-07-14T13:14:47.468Z,1002.84
2017-07-14T13:17:12.341Z,1002.8
2017-07-14T13:19:37.043Z,1002.87
2017-07-14T13:22:01.796Z,1002.8
2017-07-14T13:24:26.558Z,1002.85
2017-07-14T13:26:51.278Z,1002.81
2017-07-14T13:29:15.941Z,1002.86
2017-07-14T13:33:16.402Z,1002.83
2017-07-14T13:35:26.497Z,1002.81
2017-07-14T13:37:51.220Z,1002.9
2017-07-14T13:40:15.902Z,1002.91
2017-07-14T13:42:40.533Z,1002.91
2017-07-14T13:45:05.209Z,1002.92
2017-07-14T13:47:29.859Z,1002.9
2017-07-14T13:50:03.341Z,1002.9
2017-07-14T13:52:28.042Z,1002.86
2017-07-14T13:54:52.734Z,1002.82
2017-07-14T13:57:09.000Z,1002.77
2017-07-14T13:59:33.736Z,1002.72
2017-07-14T14:01:58.516Z,1002.68
2017-07-14T14:04:23.225Z,1002.63
2017-07-14T14:06:39.506Z,1002.65
2017-07-14T14:09:04.305Z,1002.63
2017-07-14T14:11:29.134Z,1002.67
2017-07-14T14:13:53.968Z,1002.6
2017-07-14T14:16:18.946Z,1002.66
2017-07-14T14:18:43.769Z,1002.68
2017-07-14T14:21:08.534Z,1002.74
2017-07-14T14:23:33.294Z,1002.63
2017-07-14T14:25:58.107Z,1002.65
2017-07-14T14:28:22.932Z,1002.56
2017-07-14T14:30:47.701Z,1002.6
2017-07-14T14:33:12.554Z,1002.6
2017-07-14T14:35:37.373Z,1002.56
2017-07-14T14:37:38.949Z,1002.59
2017-07-14T14:39:40.521Z,1002.59
2017-07-14T14:42:05.382Z,1002.54
2017-07-14T14:44:07.724Z,1002.5
2017-07-14T14:46:32.494Z,1002.57
2017-07-14T14:48:57.329Z,1002.48
2017-07-14T14:51:22.151Z,1002.46
2017-07-14T14:53:46.994Z,1002.5
2017-07-14T14:56:11.770Z,1002.49
2017-07-14T14:58:36.535Z,1002.45
2017-07-14T15:01:01.367Z,1002.42
2017-07-14T15:03:17.684Z,1002.41
2017-07-14T15:05:42.441Z,1002.41
2017-07-14T15:08:07.157Z,1002.35
2017-07-14T15:10:17.363Z,1002.43
2017-07-14T15:12:42.183Z,1002.42
2017-07-14T15:15:07.020Z,1002.45
2017-07-14T15:17:31.905Z,1002.38
2017-07-14T15:19:57.715Z,1002.44
2017-07-14T15:22:29.572Z,1002.43
2017-07-14T15:24:55.774Z,1002.45
2017-07-14T15:27:25.546Z,1002.46
2017-07-14T15:30:01.485Z,1002.49
2017-07-14T15:32:27.393Z,1002.54
2017-07-14T15:36:20.464Z,1002.48
2017-07-14T15:38:46.312Z,1002.52
2017-07-14T15:46:20.673Z,1002.52
2017-07-14T15:48:46.140Z,1002.55
2017-07-14T15:51:10.908Z,1002.61
2017-07-14T15:53:35.632Z,1002.6
2017-07-14T15:55:45.759Z,1002.62
2017-07-14T15:58:10.528Z,1002.62
2017-07-14T16:00:35.249Z,1002.62
2017-07-14T16:02:59.975Z,1002.74
2017-07-14T16:05:24.721Z,1002.75
2017-07-14T16:07:35.079Z,1002.77
2017-07-14T16:09:59.745Z,1002.72
2017-07-14T16:12:07.490Z,1002.78
2017-07-14T16:14:32.189Z,1002.79
2017-07-14T16:16:56.866Z,1002.77
2017-07-14T16:19:13.153Z,1002.86
2017-07-14T16:21:37.818Z,1002.83
2017-07-14T16:24:02.469Z,1002.84
2017-07-14T16:26:18.650Z,1002.89
2017-07-14T16:28:43.274Z,1002.85
2017-07-14T16:31:08.016Z,1002.92
2017-07-14T16:33:24.613Z,1002.94
2017-07-14T16:35:49.318Z,1003.01
2017-07-14T16:38:14.057Z,1003.01
2017-07-14T16:40:38.660Z,1002.99
2017-07-14T16:43:03.400Z,1003.01
2017-07-14T16:45:28.057Z,1003.01
2017-07-14T16:47:52.710Z,1003.02
2017-07-14T16:50:17.388Z,1003.05
2017-07-14T16:52:42.037Z,1003.11
2017-07-14T16:54:58.226Z,1003.09
2017-07-14T16:57:22.861Z,1003.07
2017-07-14T16:59:47.494Z,1003.07
2017-07-14T17:02:12.157Z,1003.04
2017-07-14T17:04:36.856Z,1003.03
2017-07-14T17:07:01.564Z,1003.04
2017-07-14T17:09:26.234Z,1003.02
2017-07-14T17:11:42.431Z,1003.07
2017-07-14T17:14:07.089Z,1003.07
2017-07-14T17:16:31.838Z,1003.12
2017-07-14T17:18:56.534Z,1003.03
2017-07-14T17:21:12.664Z,1003.1
2017-07-14T17:23:37.316Z,1003.11
2017-07-14T17:26:01.903Z,1003.18
2017-07-14T17:28:26.521Z,1003.17
2017-07-14T17:30:51.143Z,1003.18
2017-07-14T17:33:15.720Z,1003.13
2017-07-14T17:35:31.853Z,1003.23
2017-07-14T17:37:56.449Z,1003.18
2017-07-14T17:40:21.039Z,1003.16
2017-07-14T17:42:45.609Z,1003.18
2017-07-14T17:45:10.131Z,1003.3
2017-07-14T17:47:34.685Z,1003.24
2017-07-14T17:49:50.777Z,1003.24
2017-07-14T17:52:15.305Z,1003.23
2017-07-14T17:54:40.041Z,1003.25
2017-07-14T17:57:04.539Z,1003.3
2017-07-14T17:59:20.596Z,1003.31
2017-07-14T18:01:45.122Z,1003.33
2017-07-14T18:04:09.667Z,1003.42
2017-07-14T18:06:34.131Z,1003.42
2017-07-14T18:08:50.216Z,1003.47
2017-07-14T18:11:14.772Z,1003.49
2017-07-14T18:13:39.371Z,1003.56
2017-07-14T18:16:03.851Z,1003.55
2017-07-14T18:18:05.336Z,1003.54
2017-07-14T18:20:29.841Z,1003.54
2017-07-14T18:22:54.295Z,1003.61
2017-07-14T18:25:18.764Z,1003.61
2017-07-14T18:27:43.226Z,1003.65
2017-07-14T18:30:07.653Z,1003.68
2017-07-14T18:32:32.245Z,1003.69
2017-07-14T18:34:56.725Z,1003.74
2017-07-14T18:37:12.683Z,1003.69
2017-07-14T18:39:37.131Z,1003.78
2017-07-14T18:42:01.519Z,1003.82
2017-07-14T18:44:36.171Z,1003.83
2017-07-14T18:46:58.952Z,1003.85
2017-07-14T18:49:25.080Z,1003.88
2017-07-14T18:51:49.503Z,1003.85
2017-07-14T18:54:14.164Z,1003.91
2017-07-14T18:56:30.105Z,1003.9
2017-07-14T18:58:54.475Z,1003.95
2017-07-14T19:01:10.384Z,1003.89
2017-07-14T19:03:17.845Z,1004.06
2017-07-14T19:05:42.245Z,1004.06
2017-07-14T19:08:06.643Z,1004.12
2017-07-14T19:10:16.690Z,1004.12
2017-07-14T19:12:41.102Z,1004.15
2017-07-14T19:14:57.027Z,1004.12
2017-07-14T19:17:21.403Z,1004.19
2017-07-14T19:19:22.863Z,1004.16
2017-07-14T19:21:47.242Z,1004.16
2017-07-14T19:23:57.290Z,1004.26
2017-07-14T19:26:21.578Z,1004.28
2017-07-14T19:28:45.919Z,1004.29
2017-07-14T19:31:10.254Z,1004.29
2017-07-14T19:33:34.581Z,1004.29
2017-07-14T19:35:50.451Z,1004.27
2017-07-14T19:38:14.779Z,1004.27
2017-07-14T19:40:39.097Z,1004.33
2017-07-14T19:43:03.406Z,1004.37
2017-07-14T19:45:19.281Z,1004.36
2017-07-14T19:47:43.614Z,1004.39
2017-07-14T19:49:59.498Z,1004.46
2017-07-14T19:52:23.831Z,1004.48
2017-07-14T19:54:48.191Z,1004.53
2017-07-14T19:57:12.543Z,1004.61
2017-07-14T19:59:36.982Z,1004.62
2017-07-14T20:02:01.166Z,1004.68
2017-07-14T20:04:25.514Z,1004.69
2017-07-14T20:06:26.978Z,1004.74
2017-07-14T20:08:42.871Z,1004.53
2017-07-14T20:11:07.177Z,1004.74
2017-07-14T20:13:31.420Z,1004.77
2017-07-14T20:15:55.728Z,1004.8
2017-07-14T20:18:19.998Z,1004.8
2017-07-14T20:20:44.291Z,1004.8
2017-07-14T20:23:08.520Z,1004.79
2017-07-14T20:25:32.803Z,1004.81
2017-07-14T20:27:57.113Z,1004.82
2017-07-14T20:30:21.459Z,1004.81
2017-07-14T20:32:45.767Z,1004.92
2017-07-14T20:35:10.082Z,1005.02
2017-07-14T20:37:25.946Z,1005.04
2017-07-14T20:39:50.260Z,1005.08
2017-07-14T20:42:14.560Z,1005.11
2017-07-14T20:44:38.890Z,1005.2
2017-07-14T20:47:03.199Z,1005.21
2017-07-14T20:49:27.498Z,1005.22
2017-07-14T20:51:43.338Z,1005.34
2017-07-14T20:54:07.579Z,1005.44
2017-07-14T20:56:31.807Z,1005.55
2017-07-14T20:58:56.080Z,1005.61
2017-07-14T21:01:20.337Z,1005.73
2017-07-14T21:03:44.674Z,1005.77
2017-07-14T21:06:08.843Z,1005.95
2017-07-14T21:08:33.081Z,1005.98
2017-07-14T21:10:57.313Z,1005.89
2017-07-14T21:13:13.067Z,1006.01
2017-07-14T21:15:37.281Z,1006.05
2017-07-14T21:18:01.478Z,1005.95
2017-07-14T21:20:08.720Z,1006
2017-07-14T21:22:24.450Z,1006.01
2017-07-14T21:24:34.416Z,1006.08
2017-07-14T21:26:50.138Z,1006.09
2017-07-14T21:29:14.294Z,1006.16
2017-07-14T21:31:38.479Z,1006.15
2017-07-14T21:34:02.626Z,1006.17
2017-07-14T21:36:26.768Z,1006.23
2017-07-14T21:38:42.396Z,1006.28
2017-07-14T21:41:06.528Z,1006.29
2017-07-14T21:43:30.644Z,1006.31
2017-07-14T21:45:54.731Z,1006.36
2017-07-14T21:48:18.920Z,1006.41
2017-07-14T21:50:26.149Z,1006.44
2017-07-14T21:52:36.078Z,1006.43
2017-07-14T21:55:00.184Z,1006.45
2017-07-14T21:57:10.192Z,1006.45
2017-07-14T21:59:34.294Z,1006.51
2017-07-14T22:01:49.929Z,1006.49
2017-07-14T22:04:13.963Z,1006.49
2017-07-14T22:06:38.021Z,1006.56
2017-07-14T22:08:47.938Z,1006.57
2017-07-14T22:11:11.953Z,1006.57
2017-07-14T22:13:36.037Z,1006.6
2017-07-14T22:16:00.131Z,1006.62
2017-07-14T22:18:24.201Z,1006.62
2017-07-14T22:20:48.313Z,1006.69
2017-07-14T22:23:04.625Z,1006.68
2017-07-14T22:25:20.189Z,1006.72
2017-07-14T22:27:44.336Z,1006.75
2017-07-14T22:30:08.389Z,1006.77
2017-07-14T22:32:32.436Z,1006.83
2017-07-14T22:34:56.430Z,1006.89
2017-07-14T22:37:20.462Z,1006.89
2017-07-14T22:39:21.855Z,1006.92
2017-07-14T22:41:37.495Z,1006.98
2017-07-14T22:43:39.018Z,1006.99
2017-07-14T22:45:54.654Z,1007.01
2017-07-14T22:48:18.657Z,1007.07
2017-07-14T22:50:42.715Z,1007.05
2017-07-14T22:53:06.751Z,1007.02
2017-07-14T22:55:30.763Z,1007.06
2017-07-14T22:57:54.806Z,1007.04
2017-07-14T23:00:18.872Z,1006.94
2017-07-14T23:02:42.934Z,1006.94
2017-07-14T23:04:50.123Z,1006.94
2017-07-14T23:07:15.180Z,1006.97
2017-07-14T23:09:39.208Z,1007.03
2017-07-14T23:12:03.255Z,1007.06
2017-07-14T23:14:27.335Z,1007.16
2017-07-14T23:16:51.381Z,1007.1
2017-07-14T23:19:15.507Z,1007.06
2017-07-14T23:21:31.130Z,1007.06
2017-07-14T23:23:55.193Z,1006.99
2017-07-14T23:26:19.234Z,1007.07
2017-07-14T23:28:43.336Z,1007.04
2017-07-14T23:31:07.426Z,1007.04
2017-07-14T23:33:31.596Z,1007.06
2017-07-14T23:35:55.799Z,1007.01
2017-07-14T23:38:19.866Z,1007.04
2017-07-14T23:40:43.933Z,1007.09
2017-07-14T23:43:07.933Z,1007.08
2017-07-14T23:45:31.997Z,1007.01
2017-07-14T23:47:56.068Z,1007.02
2017-07-14T23:50:20.119Z,1007.09
2017-07-14T23:54:12.992Z,1007.11
2017-07-14T23:56:37.034Z,1007.11
2017-07-14T23:59:01.069Z,1007.23
